Time;durP1;ratioP1;P1;durP2;ratioP2;P2;SDS_P1;SDS_P2;PMS_P1;PMS_P2;Temp;Humidity;BMP_temperature;BMP_pressure;BME280_temperature;BME280_humidity;BME280_pressure;Samples;Min_cycle;Max_cycle;Signal;HPM_P1;HPM_P2
2024/03/08 00:01:13;;;;;;;10.40;5.57;;;-2.90;90.20;;;;;;4953533;28;20023;-85
2024/03/08 00:03:40;;;;;;;11.75;5.63;;;-2.90;90.20;;;;;;4957695;28;20031;-85
2024/03/08 00:06:06;;;;;;;6.80;4.75;;;-2.90;90.20;;;;;;4963888;28;20027;-87
2024/03/08 00:08:36;;;;;;;5.95;4.57;;;-3.00;90.20;;;;;;4983633;28;20039;-92
2024/03/08 00:11:02;;;;;;;8.55;5.22;;;-3.00;90.20;;;;;;4981620;28;20031;-88
2024/03/08 00:13:28;;;;;;;8.43;5.93;;;-3.00;90.30;;;;;;4970049;29;20137;-84
2024/03/08 00:15:54;;;;;;;7.15;4.50;;;-3.00;90.30;;;;;;4956251;28;20035;-83
2024/03/08 00:18:19;;;;;;;8.18;5.13;;;-3.10;90.40;;;;;;4945416;28;20023;-83
2024/03/08 00:20:45;;;;;;;9.38;5.70;;;-3.10;90.50;;;;;;4957786;28;20054;-84
2024/03/08 00:23:11;;;;;;;9.52;5.68;;;-3.10;90.60;;;;;;4949187;29;20070;-83
2024/03/08 00:25:38;;;;;;;8.80;5.13;;;-3.10;90.50;;;;;;4947457;28;20046;-83
2024/03/08 00:28:05;;;;;;;7.15;4.68;;;-3.10;90.50;;;;;;4959883;28;20020;-84
2024/03/08 00:30:32;;;;;;;8.13;4.97;;;-3.10;90.50;;;;;;4954589;28;20043;-82
2024/03/08 00:32:58;;;;;;;7.33;5.07;;;-3.10;90.40;;;;;;4958037;28;20445;-84
2024/03/08 00:35:24;;;;;;;7.75;4.47;;;-3.20;90.40;;;;;;4971545;28;20035;-84
2024/03/08 00:37:50;;;;;;;12.38;4.47;;;-3.20;90.50;;;;;;4956428;29;20027;-83
2024/03/08 00:40:16;;;;;;;10.45;5.03;;;-3.20;90.40;;;;;;4955266;28;20053;-85
2024/03/08 00:42:43;;;;;;;8.43;4.90;;;-3.20;90.40;;;;;;4954393;28;20019;-83
2024/03/08 00:45:10;;;;;;;7.75;4.32;;;-3.20;90.40;;;;;;4957780;29;20031;-87
2024/03/08 00:47:36;;;;;;;6.18;3.78;;;-3.30;90.40;;;;;;4953364;28;20023;-87
2024/03/08 00:50:03;;;;;;;8.82;4.53;;;-3.30;90.40;;;;;;4953105;28;20078;-86
2024/03/08 00:52:29;;;;;;;;;;;-3.30;90.60;;;;;;4956577;28;20490;-87
2024/03/08 00:54:55;;;;;;;6.93;3.90;;;-3.30;90.60;;;;;;4955972;29;19913;-87
2024/03/08 00:57:21;;;;;;;7.45;3.60;;;-3.30;90.50;;;;;;4955854;28;20034;-88
2024/03/08 00:59:48;;;;;;;15.73;4.43;;;-3.20;90.60;;;;;;4956013;29;20066;-88
2024/03/08 01:02:14;;;;;;;6.53;3.42;;;-3.10;90.60;;;;;;4955030;28;20027;-89
2024/03/08 01:04:40;;;;;;;6.07;4.00;;;-3.00;90.60;;;;;;4949904;28;20031;-88
2024/03/08 01:07:05;;;;;;;8.30;4.03;;;-2.90;90.50;;;;;;4948289;28;20051;-88
2024/03/08 01:09:31;;;;;;;9.15;4.50;;;-2.80;90.30;;;;;;4942989;28;20074;-89
2024/03/08 01:11:58;;;;;;;6.55;3.80;;;-2.80;90.20;;;;;;4945861;29;20023;-85
2024/03/08 01:14:28;;;;;;;7.33;4.27;;;-2.80;90.10;;;;;;4955762;28;20031;-87
2024/03/08 01:16:54;;;;;;;6.90;4.20;;;-2.80;90.10;;;;;;4954354;29;20027;-88
2024/03/08 01:19:20;;;;;;;4.63;3.10;;;-2.80;90.00;;;;;;4954439;29;20043;-87
2024/03/08 01:21:46;;;;;;;6.47;3.60;;;-2.90;89.90;;;;;;4954957;28;20035;-87
2024/03/08 01:24:12;;;;;;;6.68;4.15;;;-2.90;90.00;;;;;;4956197;29;20023;-85
2024/03/08 01:26:38;;;;;;;6.53;3.90;;;-3.00;90.10;;;;;;4962691;28;20031;-85
2024/03/08 01:29:04;;;;;;;5.68;3.60;;;-3.00;90.10;;;;;;4956886;28;20042;-87
2024/03/08 01:31:30;;;;;;;9.10;4.25;;;-3.10;90.20;;;;;;4937604;28;20032;-86
2024/03/08 01:33:57;;;;;;;5.95;4.03;;;-3.10;90.20;;;;;;4952217;29;20028;-87
2024/03/08 01:36:24;;;;;;;7.85;3.95;;;-3.10;90.30;;;;;;4939444;29;20075;-87
2024/03/08 01:38:50;;;;;;;7.45;4.90;;;-3.10;90.40;;;;;;4938964;29;20023;-86
2024/03/08 01:41:18;;;;;;;10.10;4.43;;;-3.00;90.50;;;;;;4953973;29;20552;-85
2024/03/08 01:43:44;;;;;;;;;;;-3.00;90.40;;;;;;4945749;28;20032;-85
2024/03/08 01:46:15;;;;;;;6.00;4.10;;;-2.90;90.30;;;;;;4939036;28;19918;-84
2024/03/08 01:48:41;;;;;;;7.50;4.18;;;-2.90;90.30;;;;;;4939670;29;20470;-85
2024/03/08 01:51:08;;;;;;;6.40;3.83;;;-2.80;90.30;;;;;;4941858;28;20527;-87
2024/03/08 01:53:35;;;;;;;6.57;3.90;;;-2.80;90.20;;;;;;4941018;28;20272;-84
2024/03/08 01:56:02;;;;;;;5.88;3.88;;;-2.80;90.10;;;;;;4943173;28;20034;-87
2024/03/08 01:58:29;;;;;;;6.20;4.38;;;-2.90;90.00;;;;;;4948443;29;20031;-86
2024/03/08 02:00:57;;;;;;;7.63;4.45;;;-3.00;90.10;;;;;;4943548;28;20054;-86
2024/03/08 02:03:23;;;;;;;9.20;4.25;;;-3.10;90.30;;;;;;4938897;29;20023;-86
2024/03/08 02:05:51;;;;;;;8.68;4.43;;;-3.30;90.40;;;;;;4946267;29;20102;-86
2024/03/08 02:08:19;;;;;;;6.43;3.85;;;-3.30;90.50;;;;;;4958276;28;20377;-85
2024/03/08 02:10:45;;;;;;;8.68;3.83;;;-3.40;90.60;;;;;;4944972;28;20035;-85
2024/03/08 02:13:11;;;;;;;9.05;4.10;;;-3.40;90.70;;;;;;4943696;28;20406;-86
2024/03/08 02:16:00;;;;;;;7.88;4.70;;;-3.50;90.80;;;;;;4952022;29;20059;-87
2024/03/08 02:18:27;;;;;;;16.00;4.80;;;-3.50;90.90;;;;;;4949218;29;20026;-86
2024/03/08 02:20:57;;;;;;;5.53;4.03;;;-3.60;91.00;;;;;;4958109;28;20054;-85
2024/03/08 02:23:24;;;;;;;9.10;5.05;;;-3.60;91.10;;;;;;4955858;28;20481;-84
2024/03/08 02:25:50;;;;;;;7.50;4.57;;;-3.70;91.20;;;;;;4958014;28;20023;-84
2024/03/08 02:28:19;;;;;;;11.63;4.78;;;-3.70;91.30;;;;;;4959686;28;20043;-85
2024/03/08 02:30:54;;;;;;;7.28;5.35;;;-3.70;91.30;;;;;;4949885;28;20036;-86
2024/03/08 02:33:20;;;;;;;8.00;4.75;;;-3.80;91.30;;;;;;4942948;29;20024;-87
2024/03/08 02:35:47;;;;;;;10.52;5.10;;;-3.80;91.40;;;;;;4953421;28;20031;-85
2024/03/08 02:38:17;;;;;;;8.27;5.65;;;-3.80;91.60;;;;;;4958879;28;20030;-84
2024/03/08 02:40:43;;;;;;;8.25;5.05;;;-3.80;91.80;;;;;;4956536;28;20027;-84
2024/03/08 02:43:14;;;;;;;7.25;4.45;;;-3.90;91.90;;;;;;4955738;29;20035;-85
2024/03/08 02:45:41;;;;;;;5.78;3.88;;;-3.90;92.10;;;;;;4960475;28;20023;-86
2024/03/08 02:48:07;;;;;;;;;;;-3.80;92.20;;;;;;4951804;29;20111;-86
2024/03/08 02:50:34;;;;;;;7.72;5.15;;;-3.80;92.20;;;;;;4962455;28;20494;-86
2024/03/08 02:53:01;;;;;;;11.40;5.45;;;-3.70;92.30;;;;;;4958941;28;20022;-86
2024/03/08 02:55:27;;;;;;;6.15;4.18;;;-3.70;92.30;;;;;;4957848;28;20042;-86
2024/03/08 02:57:56;;;;;;;7.97;4.57;;;-3.60;92.20;;;;;;4957905;28;20011;-85
2024/03/08 03:00:26;;;;;;;6.60;4.15;;;-3.60;92.00;;;;;;4948074;28;20090;-85
2024/03/08 03:02:56;;;;;;;7.07;5.03;;;-3.70;92.00;;;;;;4944655;29;20194;-84
2024/03/08 03:05:22;;;;;;;8.57;5.15;;;-3.80;92.00;;;;;;4957844;28;20027;-84
2024/03/08 03:07:49;;;;;;;7.80;4.30;;;-3.90;92.10;;;;;;4955763;28;20043;-83
2024/03/08 03:10:18;;;;;;;9.75;4.80;;;-4.00;92.30;;;;;;4953780;29;20042;-83
2024/03/08 03:12:45;;;;;;;4.85;3.28;;;-4.00;92.50;;;;;;4956880;29;20083;-85
2024/03/08 03:15:12;;;;;;;8.63;5.10;;;-4.10;92.60;;;;;;4964435;28;20027;-84
2024/03/08 03:17:40;;;;;;;6.25;4.32;;;-4.20;92.80;;;;;;4954343;28;20488;-85
2024/03/08 03:20:12;;;;;;;8.20;4.93;;;-4.20;92.90;;;;;;4953314;28;20030;-84
2024/03/08 03:22:39;;;;;;;6.60;4.85;;;-4.20;93.10;;;;;;4956494;29;20575;-85
2024/03/08 03:25:06;;;;;;;9.10;4.88;;;-4.20;93.20;;;;;;4951358;28;20037;-84
2024/03/08 03:27:32;;;;;;;;;;;-4.30;93.30;;;;;;4945893;29;20016;-84
2024/03/08 03:29:58;;;;;;;9.20;4.82;;;-4.30;93.40;;;;;;4951988;29;19924;-83
2024/03/08 03:32:24;;;;;;;8.70;5.32;;;-4.30;93.50;;;;;;4944619;28;20059;-84
2024/03/08 03:34:52;;;;;;;9.73;5.10;;;-4.30;93.70;;;;;;4953329;29;20027;-85
2024/03/08 03:37:19;;;;;;;7.55;5.47;;;-4.40;93.80;;;;;;4953920;28;20442;-86
2024/03/08 03:39:48;;;;;;;10.57;4.97;;;-4.30;93.90;;;;;;4950136;29;20027;-83
2024/03/08 03:42:19;;;;;;;6.88;5.05;;;-4.30;94.00;;;;;;4943123;29;20023;-83
2024/03/08 03:44:48;;;;;;;11.40;6.18;;;-4.30;94.00;;;;;;4952735;29;20504;-83
2024/03/08 03:47:15;;;;;;;8.00;5.13;;;-4.30;94.00;;;;;;4947980;28;20030;-82
2024/03/08 03:49:42;;;;;;;8.70;5.18;;;-4.20;94.10;;;;;;4951438;28;20036;-84
2024/03/08 03:52:09;;;;;;;11.82;5.45;;;-4.20;94.00;;;;;;4952137;28;20031;-84
2024/03/08 03:54:34;;;;;;;10.03;5.50;;;-4.10;93.90;;;;;;4965406;28;20035;-84
2024/03/08 03:57:03;;;;;;;9.88;6.20;;;-4.10;93.80;;;;;;4952397;28;20019;-83
2024/03/08 03:59:29;;;;;;;9.27;6.18;;;-4.10;93.90;;;;;;4966796;28;20035;-82
2024/03/08 04:01:55;;;;;;;7.63;4.90;;;-4.10;93.80;;;;;;4956997;28;20052;-83
2024/03/08 04:04:21;;;;;;;13.27;5.93;;;-4.20;93.90;;;;;;4950080;29;20020;-84
2024/03/08 04:06:47;;;;;;;9.52;5.85;;;-4.20;94.00;;;;;;4941528;29;20051;-83
2024/03/08 04:09:13;;;;;;;11.32;5.47;;;-4.20;94.00;;;;;;4946045;28;20114;-83
2024/03/08 04:11:40;;;;;;;11.52;6.25;;;-4.30;94.10;;;;;;4956709;29;20499;-84
2024/03/08 04:14:06;;;;;;;9.77;7.18;;;-4.30;94.30;;;;;;4947428;28;20090;-83
2024/03/08 04:16:32;;;;;;;10.30;7.15;;;-4.20;94.30;;;;;;4953407;29;20482;-82
2024/03/08 04:18:59;;;;;;;10.85;5.50;;;-4.20;94.30;;;;;;4948443;28;20023;-84
2024/03/08 04:21:25;;;;;;;14.35;6.50;;;-4.10;94.40;;;;;;4952788;28;20043;-82
2024/03/08 04:23:50;;;;;;;12.57;7.80;;;-4.10;94.30;;;;;;4956931;28;20027;-84
2024/03/08 04:26:16;;;;;;;10.88;6.45;;;-4.10;94.20;;;;;;4947140;28;20485;-84
2024/03/08 04:28:42;;;;;;;11.70;6.90;;;-4.10;94.40;;;;;;4940197;29;20023;-84
2024/03/08 04:31:08;;;;;;;16.33;7.18;;;-4.10;94.40;;;;;;4971130;28;20039;-83
2024/03/08 04:33:36;;;;;;;10.63;6.85;;;-4.00;94.40;;;;;;4957155;28;20054;-84
2024/03/08 04:36:05;;;;;;;13.25;7.82;;;-4.00;94.40;;;;;;4955586;28;20035;-84
2024/03/08 04:38:31;;;;;;;14.35;7.15;;;-3.90;94.40;;;;;;4952011;28;20019;-84
2024/03/08 04:40:58;;;;;;;15.55;7.43;;;-3.90;94.40;;;;;;4970049;28;20035;-84
2024/03/08 04:43:26;;;;;;;12.33;7.47;;;-3.90;94.40;;;;;;4945643;29;20035;-84
2024/03/08 04:45:53;;;;;;;12.15;6.85;;;-3.90;94.40;;;;;;4944632;29;20270;-83
2024/03/08 04:48:20;;;;;;;15.63;8.00;;;-3.90;94.40;;;;;;4937777;29;20106;-84
2024/03/08 04:50:46;;;;;;;17.27;7.75;;;-3.80;94.40;;;;;;4951363;29;20862;-85
2024/03/08 04:53:12;;;;;;;15.00;7.32;;;-3.90;94.40;;;;;;4954334;29;20114;-84
2024/03/08 04:55:38;;;;;;;10.85;7.68;;;-3.90;94.80;;;;;;4958603;28;20094;-83
2024/03/08 04:58:06;;;;;;;8.30;6.10;;;-3.90;94.60;;;;;;4955097;28;20050;-82
2024/03/08 05:00:32;;;;;;;11.55;7.18;;;-3.90;94.50;;;;;;4948060;28;20024;-83
2024/03/08 05:02:59;;;;;;;15.90;9.23;;;-3.90;94.70;;;;;;4942986;28;20082;-83
2024/03/08 05:05:26;;;;;;;14.02;6.85;;;-3.80;94.70;;;;;;4940598;28;20461;-84
2024/03/08 05:07:52;;;;;;;13.27;7.82;;;-3.80;94.80;;;;;;4943368;29;20129;-81
2024/03/08 05:10:17;;;;;;;13.25;7.03;;;-3.90;94.90;;;;;;4972483;28;20043;-83
2024/03/08 05:12:44;;;;;;;11.98;7.47;;;-3.90;95.10;;;;;;4947483;29;20074;-84
2024/03/08 05:15:10;;;;;;;19.43;7.13;;;-3.90;95.20;;;;;;4947087;29;20028;-83
2024/03/08 05:17:36;;;;;;;14.68;7.80;;;-3.90;95.30;;;;;;4946140;28;20023;-83
2024/03/08 05:20:03;;;;;;;11.95;7.65;;;-3.90;95.40;;;;;;4947351;29;20401;-84
2024/03/08 05:22:29;;;;;;;;;;;-3.90;95.60;;;;;;4947766;29;20030;-85
2024/03/08 05:24:55;;;;;;;14.75;6.88;;;-3.80;95.60;;;;;;4953092;28;19907;-86
2024/03/08 05:27:21;;;;;;;13.02;7.30;;;-3.80;95.60;;;;;;4954698;28;20119;-83
2024/03/08 05:29:47;;;;;;;13.18;7.13;;;-3.70;95.50;;;;;;4965237;28;20168;-83
2024/03/08 05:32:14;;;;;;;11.75;7.00;;;-3.70;95.50;;;;;;4950750;28;20020;-84
2024/03/08 05:34:39;;;;;;;15.50;8.23;;;-3.70;95.70;;;;;;4953339;29;20027;-85
2024/03/08 05:37:07;;;;;;;13.25;7.43;;;-3.70;96.00;;;;;;4953247;28;20035;-84
2024/03/08 05:39:33;;;;;;;12.63;7.65;;;-3.60;95.80;;;;;;4952609;28;20031;-84
2024/03/08 05:41:58;;;;;;;14.27;8.63;;;-3.60;95.80;;;;;;4946056;28;20397;-84
2024/03/08 05:44:24;;;;;;;14.93;6.35;;;-3.60;95.70;;;;;;4938592;29;20020;-84
2024/03/08 05:46:50;;;;;;;13.05;7.00;;;-3.60;95.70;;;;;;4950288;29;20086;-83
2024/03/08 05:49:16;;;;;;;12.02;7.45;;;-3.60;95.70;;;;;;4941839;28;20028;-84
2024/03/08 05:51:42;;;;;;;12.52;6.72;;;-3.70;95.90;;;;;;4940539;29;20047;-84
2024/03/08 05:54:10;;;;;;;15.60;7.47;;;-3.70;95.90;;;;;;4959744;28;20023;-82
2024/03/08 05:56:38;;;;;;;16.75;8.35;;;-3.60;96.00;;;;;;4941057;29;20026;-84
2024/03/08 05:59:04;;;;;;;14.73;8.50;;;-3.60;96.10;;;;;;4964898;28;20477;-84
2024/03/08 06:01:31;;;;;;;13.95;7.35;;;-3.50;96.10;;;;;;4940610;29;20034;-83
2024/03/08 06:03:57;;;;;;;13.90;6.95;;;-3.50;96.00;;;;;;4945081;29;20114;-84
2024/03/08 06:06:24;;;;;;;12.93;7.72;;;-3.40;96.10;;;;;;4944574;28;20020;-83
2024/03/08 06:08:50;;;;;;;11.20;7.53;;;-3.40;96.10;;;;;;4949107;28;20035;-82
2024/03/08 06:11:18;;;;;;;12.35;7.40;;;-3.30;96.10;;;;;;4940975;28;20507;-83
2024/03/08 06:13:45;;;;;;;10.05;7.05;;;-3.30;96.00;;;;;;4948551;29;20027;-85
2024/03/08 06:16:11;;;;;;;13.88;7.85;;;-3.30;96.00;;;;;;4952432;28;20469;-84
2024/03/08 06:18:37;;;;;;;12.90;8.65;;;-3.30;96.00;;;;;;4943672;29;20031;-86
2024/03/08 06:21:06;;;;;;;12.10;9.02;;;-3.10;96.10;;;;;;4951760;28;20082;-85
2024/03/08 06:23:33;;;;;;;14.40;7.63;;;-3.10;95.90;;;;;;4947051;28;20031;-84
2024/03/08 06:25:59;;;;;;;14.02;7.55;;;-3.10;95.70;;;;;;4951684;28;20111;-85
2024/03/08 06:28:25;;;;;;;14.80;8.75;;;-3.10;95.70;;;;;;4951212;29;20114;-84
2024/03/08 06:30:51;;;;;;;13.43;8.00;;;-3.10;95.60;;;;;;4950779;29;20089;-85
2024/03/08 06:33:18;;;;;;;16.05;8.57;;;-3.00;95.60;;;;;;4952578;28;20031;-85
2024/03/08 06:35:44;;;;;;;13.90;7.90;;;-3.10;95.60;;;;;;4948779;29;20042;-83
2024/03/08 06:38:11;;;;;;;12.15;7.55;;;-3.10;95.60;;;;;;4936581;28;20774;-84
2024/03/08 06:40:37;;;;;;;12.40;8.05;;;-3.00;95.70;;;;;;4950757;29;20046;-83
2024/03/08 06:43:05;;;;;;;14.85;7.28;;;-3.00;95.60;;;;;;4942922;29;20032;-82
2024/03/08 06:45:32;;;;;;;9.55;7.40;;;-2.90;95.50;;;;;;4949595;29;20027;-84
2024/03/08 06:47:57;;;;;;;13.38;7.60;;;-2.90;95.40;;;;;;4939814;29;20031;-84
2024/03/08 06:50:23;;;;;;;12.60;6.95;;;-2.90;95.30;;;;;;4949622;29;20040;-84
2024/03/08 06:52:53;;;;;;;12.35;8.27;;;-2.90;95.30;;;;;;4938321;28;20099;-84
2024/03/08 06:55:20;;;;;;;19.52;8.57;;;-2.90;95.40;;;;;;4957061;29;20126;-85
2024/03/08 06:57:45;;;;;;;11.97;8.23;;;-2.90;95.40;;;;;;4957693;28;20024;-87
2024/03/08 07:00:18;;;;;;;11.70;7.65;;;-2.80;95.40;;;;;;4945816;29;20031;-85
2024/03/08 07:02:48;;;;;;;12.60;8.40;;;-2.70;95.40;;;;;;4941720;29;20032;-83
2024/03/08 07:05:16;;;;;;;10.73;7.10;;;-2.60;95.30;;;;;;4946424;29;20027;-84
2024/03/08 07:07:42;;;;;;;13.80;8.07;;;-2.60;95.00;;;;;;4948265;28;20047;-84
2024/03/08 07:10:15;;;;;;;9.98;6.85;;;-2.50;94.90;;;;;;4950077;29;20849;-85
2024/03/08 07:12:42;;;;;;;12.02;7.65;;;-2.50;95.00;;;;;;4947966;28;20072;-84
2024/03/08 07:15:13;;;;;;;11.93;8.25;;;-2.40;95.00;;;;;;4951003;29;20015;-84
2024/03/08 07:17:39;;;;;;;15.45;8.77;;;-2.50;94.80;;;;;;4945970;28;20102;-85
2024/03/08 07:20:11;;;;;;;16.70;7.70;;;-2.50;95.00;;;;;;4952200;29;20051;-83
2024/03/08 07:22:38;;;;;;;12.95;7.70;;;-2.40;94.90;;;;;;4950866;28;20117;-85
2024/03/08 07:27:36;;;;;;;16.63;8.80;;;-2.30;95.00;;;;;;4950738;28;20490;-86
2024/03/08 07:30:05;;;;;;;12.98;7.32;;;-2.10;94.90;;;;;;4946420;29;20046;-85
2024/03/08 07:32:31;;;;;;;15.13;7.95;;;-2.00;94.60;;;;;;4940193;29;20154;-83
2024/03/08 07:34:58;;;;;;;12.10;7.60;;;-2.10;94.30;;;;;;4950526;29;20032;-84
2024/03/08 07:37:24;;;;;;;16.17;7.85;;;-2.10;94.30;;;;;;4944844;28;20082;-85
2024/03/08 07:39:50;;;;;;;20.77;7.25;;;-2.10;94.20;;;;;;4951945;29;20030;-82
2024/03/08 07:42:16;;;;;;;12.95;8.32;;;-2.10;94.30;;;;;;4955197;29;20393;-83
2024/03/08 07:44:42;;;;;;;13.70;7.25;;;-2.10;94.30;;;;;;4956611;28;20760;-84
2024/03/08 07:47:09;;;;;;;18.00;8.15;;;-2.00;94.20;;;;;;4962513;28;20492;-85
2024/03/08 07:49:38;;;;;;;11.33;7.93;;;-1.90;94.00;;;;;;4937991;29;20045;-85
2024/03/08 07:52:07;;;;;;;13.05;6.22;;;-1.90;93.90;;;;;;4955200;29;20043;-83
2024/03/08 07:54:34;;;;;;;9.88;6.57;;;-1.90;93.80;;;;;;4956520;28;20092;-85
2024/03/08 07:57:02;;;;;;;12.32;6.90;;;-1.80;93.70;;;;;;4946293;28;20035;-84
2024/03/08 07:59:30;;;;;;;11.70;7.10;;;-1.90;93.70;;;;;;4953370;29;20026;-84
2024/03/08 08:01:56;;;;;;;15.27;7.22;;;-1.80;93.90;;;;;;4950879;29;20126;-84
2024/03/08 08:04:24;;;;;;;12.82;7.70;;;-1.60;93.80;;;;;;4955788;29;20054;-82
2024/03/08 08:06:51;;;;;;;15.40;7.85;;;-1.40;93.60;;;;;;4955599;28;20409;-81
2024/03/08 08:09:28;;;;;;;12.98;7.50;;;-1.30;93.30;;;;;;4974261;28;20042;-83
2024/03/08 08:11:54;;;;;;;10.43;6.43;;;-1.10;93.10;;;;;;4959146;29;20042;-82
2024/03/08 08:14:21;;;;;;;11.60;7.63;;;-1.00;92.90;;;;;;4953122;29;20028;-83
2024/03/08 08:16:48;;;;;;;14.70;7.47;;;-1.00;92.60;;;;;;4968879;28;20031;-87
2024/03/08 08:19:15;;;;;;;11.05;7.10;;;-1.10;92.50;;;;;;4953682;29;20031;-87
2024/03/08 08:21:41;;;;;;;12.85;8.32;;;-1.20;92.80;;;;;;4951768;28;20042;-86
2024/03/08 08:24:07;;;;;;;12.43;7.82;;;-1.10;92.90;;;;;;4946995;29;20035;-85
2024/03/08 08:26:33;;;;;;;11.80;7.88;;;-1.00;92.70;;;;;;4949412;29;20051;-85
2024/03/08 08:29:00;;;;;;;11.52;5.85;;;-0.90;92.50;;;;;;4940699;28;20367;-84
2024/03/08 08:31:26;;;;;;;13.18;7.72;;;-0.90;92.30;;;;;;4945878;29;20052;-84
2024/03/08 08:33:58;;;;;;;11.52;7.22;;;-0.90;92.30;;;;;;4943136;29;20019;-84
2024/03/08 08:36:26;;;;;;;15.57;9.40;;;-0.80;92.50;;;;;;4940607;29;20415;-83
2024/03/08 08:38:55;;;;;;;11.70;7.47;;;-0.60;92.20;;;;;;4952172;28;20023;-84
2024/03/08 08:41:21;;;;;;;10.90;8.23;;;-0.30;92.10;;;;;;4950299;28;20026;-85
2024/03/08 08:43:49;;;;;;;11.30;8.10;;;0.10;92.00;;;;;;4955378;28;20019;-83
2024/03/08 08:46:18;;;;;;;15.52;8.13;;;0.10;91.30;;;;;;4952415;29;20137;-84
2024/03/08 08:48:45;;;;;;;12.20;7.50;;;0.10;91.10;;;;;;4952194;29;20159;-82
2024/03/08 08:51:15;;;;;;;11.95;7.82;;;0.10;91.10;;;;;;4943095;28;20042;-84
2024/03/08 08:53:45;;;;;;;10.73;7.25;;;0.00;91.00;;;;;;4946795;29;20495;-84
2024/03/08 08:56:12;;;;;;;16.65;8.45;;;-0.20;91.20;;;;;;4938291;28;20498;-85
2024/03/08 08:58:48;;;;;;;15.02;8.05;;;-0.20;91.50;;;;;;4951198;29;20023;-85
2024/03/08 09:01:14;;;;;;;11.80;7.63;;;-0.30;91.50;;;;;;4939638;28;20031;-83
2024/03/08 09:03:40;;;;;;;11.73;7.30;;;-0.40;91.70;;;;;;4950546;29;20031;-85
2024/03/08 09:06:10;;;;;;;10.65;6.88;;;-0.40;91.80;;;;;;4946684;28;20114;-83
2024/03/08 09:08:37;;;;;;;14.48;9.57;;;-0.30;91.90;;;;;;4950145;28;20046;-84
2024/03/08 09:11:04;;;;;;;12.13;8.10;;;-0.40;91.90;;;;;;4950573;28;20039;-84
2024/03/08 09:13:30;;;;;;;12.70;8.80;;;-0.20;92.10;;;;;;4948530;29;20053;-84
2024/03/08 09:15:56;;;;;;;14.07;8.47;;;-0.10;91.90;;;;;;4955183;28;20050;-83
2024/03/08 09:18:23;;;;;;;11.88;7.40;;;0.10;92.00;;;;;;4951231;28;20016;-83
2024/03/08 09:20:50;;;;;;;14.75;8.35;;;0.30;91.80;;;;;;4955301;28;20031;-84
2024/03/08 09:23:19;;;;;;;11.63;7.43;;;0.50;91.60;;;;;;4943032;28;20032;-83
2024/03/08 09:25:46;;;;;;;13.02;8.30;;;0.70;91.10;;;;;;4946662;28;20388;-83
2024/03/08 09:28:12;;;;;;;11.00;8.25;;;0.80;90.90;;;;;;4940020;29;20020;-85
2024/03/08 09:30:39;;;;;;;20.23;9.45;;;0.80;90.80;;;;;;4952408;28;20035;-84
2024/03/08 09:33:05;;;;;;;14.18;9.52;;;1.00;90.80;;;;;;4938463;29;20035;-83
2024/03/08 09:35:32;;;;;;;16.53;9.10;;;1.10;90.70;;;;;;4941124;29;20023;-84
2024/03/08 09:38:00;;;;;;;13.38;8.68;;;1.40;90.40;;;;;;4953263;29;20031;-84
2024/03/08 09:40:27;;;;;;;10.88;6.85;;;1.60;89.90;;;;;;4944204;29;20537;-82
2024/03/08 09:42:53;;;;;;;19.15;9.20;;;1.40;88.90;;;;;;4940807;28;20115;-84
2024/03/08 09:45:24;;;;;;;12.38;9.23;;;1.10;89.90;;;;;;4944894;28;20083;-84
2024/03/08 09:47:50;;;;;;;11.77;7.43;;;0.90;90.20;;;;;;4940432;28;20032;-82
2024/03/08 09:50:17;;;;;;;12.35;8.05;;;0.80;90.30;;;;;;4946087;28;20367;-84
2024/03/08 09:52:46;;;;;;;11.20;7.43;;;0.60;90.50;;;;;;4943795;28;20024;-84
2024/03/08 09:55:12;;;;;;;9.15;6.88;;;0.50;90.90;;;;;;4945543;29;20028;-84
2024/03/08 09:57:39;;;;;;;13.07;8.93;;;0.50;91.10;;;;;;4946242;29;20102;-83
2024/03/08 10:00:18;;;;;;;11.63;8.07;;;0.50;91.20;;;;;;4951862;29;20038;-85
2024/03/08 10:02:47;;;;;;;13.85;8.88;;;0.50;91.10;;;;;;4948553;28;20023;-83
2024/03/08 10:05:14;;;;;;;12.48;7.70;;;0.50;91.20;;;;;;4952807;29;20034;-92
2024/03/08 10:07:40;;;;;;;15.80;9.20;;;0.50;91.20;;;;;;4962738;28;20052;-89
2024/03/08 10:10:08;;;;;;;12.77;9.05;;;0.50;91.30;;;;;;4967341;28;20500;-88
2024/03/08 10:12:35;;;;;;;12.35;8.52;;;0.50;91.20;;;;;;4955902;29;20019;-89
2024/03/08 10:15:01;;;;;;;13.48;7.68;;;0.60;91.20;;;;;;4956525;28;20024;-85
2024/03/08 10:17:32;;;;;;;10.80;8.52;;;0.50;91.30;;;;;;4951186;28;20027;-88
2024/03/08 10:19:58;;;;;;;10.93;8.48;;;0.50;91.40;;;;;;4953423;28;20397;-86
2024/03/08 10:22:29;;;;;;;12.95;8.90;;;0.60;91.50;;;;;;4937425;28;20039;-90
2024/03/08 10:24:55;;;;;;;14.57;9.25;;;0.70;91.40;;;;;;4938731;29;20441;-89
2024/03/08 10:27:21;;;;;;;14.10;8.73;;;0.80;91.70;;;;;;4953834;29;20038;-89
2024/03/08 10:29:51;;;;;;;15.00;9.15;;;0.90;91.20;;;;;;4958075;29;20047;-89
2024/03/08 10:32:17;;;;;;;20.50;9.20;;;1.00;91.00;;;;;;4952381;28;20134;-87
2024/03/08 10:34:44;;;;;;;11.68;7.40;;;0.90;91.10;;;;;;4943988;29;20446;-88
2024/03/08 10:37:18;;;;;;;13.50;9.13;;;0.90;91.10;;;;;;4953008;29;20029;-88
2024/03/08 10:39:53;;;;;;;11.98;8.48;;;0.90;91.00;;;;;;4949781;29;20142;-88
2024/03/08 10:42:26;;;;;;;12.35;8.80;;;0.90;91.20;;;;;;4956975;28;20019;-87
2024/03/08 10:45:15;;;;;;;13.23;9.23;;;0.90;91.20;;;;;;4962450;28;20034;-90
2024/03/08 10:47:44;;;;;;;12.18;8.32;;;0.90;91.20;;;;;;4942769;28;20102;-89
2024/03/08 10:50:22;;;;;;;12.85;7.63;;;0.80;91.20;;;;;;4962127;28;20039;-87
2024/03/08 10:52:52;;;;;;;15.60;7.93;;;0.70;91.50;;;;;;4961364;28;20020;-88
2024/03/08 10:55:20;;;;;;;10.93;7.50;;;0.60;91.60;;;;;;4957303;29;20116;-89
2024/03/08 10:57:54;;;;;;;11.60;8.75;;;0.50;91.70;;;;;;4946761;28;20016;-90
2024/03/08 11:00:26;;;;;;;16.05;9.02;;;0.50;91.90;;;;;;4950175;29;20115;-90
2024/03/08 11:02:53;;;;;;;14.50;8.80;;;0.50;92.00;;;;;;4950688;29;20022;-88
2024/03/08 11:05:40;;;;;;;13.07;7.57;;;0.50;92.20;;;;;;4957665;28;20051;-88
2024/03/08 11:08:19;;;;;;;12.13;8.35;;;0.60;92.30;;;;;;4963252;28;20060;-88
2024/03/08 11:10:55;;;;;;;10.00;6.93;;;0.70;92.10;;;;;;4953548;29;20035;-88
2024/03/08 11:13:43;;;;;;;15.55;9.27;;;0.80;92.10;;;;;;4971420;28;20118;-91
2024/03/08 11:16:32;;;;;;;16.35;8.70;;;0.90;91.80;;;;;;4956314;29;20919;-92
2024/03/08 11:19:05;;;;;;;15.45;9.40;;;1.00;91.70;;;;;;4953933;29;20027;-90
2024/03/08 11:21:33;;;;;;;13.75;8.57;;;1.00;91.50;;;;;;4970586;28;20078;-87
2024/03/08 11:24:05;;;;;;;;;;;1.10;91.40;;;;;;4955176;29;20524;-86
2024/03/08 11:26:31;;;;;;;13.32;9.52;;;1.00;91.40;;;;;;4972977;28;19938;-88
2024/03/08 11:29:35;;;;;;;15.00;10.05;;;1.00;91.50;;;;;;4953081;28;20027;-90
2024/03/08 11:32:11;;;;;;;14.15;9.13;;;1.10;91.50;;;;;;4958482;28;20055;-90
2024/03/08 11:34:40;;;;;;;14.85;8.60;;;1.10;91.30;;;;;;4959924;28;20027;-90
2024/03/08 11:37:12;;;;;;;15.02;8.80;;;1.10;91.50;;;;;;4975190;28;20027;-88
2024/03/08 11:39:39;;;;;;;13.88;9.15;;;1.10;91.60;;;;;;4961601;29;20027;-89
2024/03/08 11:42:06;;;;;;;14.02;8.43;;;1.30;91.20;;;;;;4954199;29;20023;-87
2024/03/08 11:44:32;;;;;;;14.87;7.43;;;1.30;90.90;;;;;;4949028;28;20035;-85
2024/03/08 11:46:58;;;;;;;12.50;8.27;;;1.30;91.10;;;;;;4951848;29;20058;-85
2024/03/08 11:49:27;;;;;;;13.60;8.30;;;1.40;91.00;;;;;;4956040;29;20031;-90
2024/03/08 11:51:53;;;;;;;14.07;8.73;;;1.50;90.80;;;;;;4945484;28;20036;-86
2024/03/08 11:54:20;;;;;;;12.45;8.32;;;1.60;90.90;;;;;;4958966;29;20567;-89
2024/03/08 11:56:48;;;;;;;12.40;7.53;;;1.80;90.60;;;;;;4956936;28;20020;-89
2024/03/08 11:59:14;;;;;;;11.43;7.72;;;1.90;90.40;;;;;;4952225;28;20110;-90
2024/03/08 12:01:40;;;;;;;10.65;7.60;;;1.90;90.20;;;;;;4966421;28;20027;-87
2024/03/08 12:04:06;;;;;;;13.20;8.68;;;1.90;90.10;;;;;;4985761;28;20103;-88
2024/03/08 12:06:40;;;;;;;15.73;9.75;;;1.80;89.70;;;;;;4954441;28;20056;-91
2024/03/08 12:09:10;;;;;;;14.45;9.73;;;1.70;90.10;;;;;;4959829;29;20023;-89
2024/03/08 12:11:37;;;;;;;15.25;10.02;;;1.80;90.30;;;;;;4956126;28;20024;-88
2024/03/08 12:14:04;;;;;;;11.63;7.15;;;1.80;90.10;;;;;;4946747;29;20031;-89
2024/03/08 12:16:30;;;;;;;12.50;9.63;;;1.80;90.00;;;;;;4955128;29;20023;-91
2024/03/08 12:18:57;;;;;;;19.52;9.65;;;1.80;90.10;;;;;;4950283;29;20026;-90
2024/03/08 12:21:26;;;;;;;12.93;7.80;;;2.00;90.00;;;;;;4959291;28;20051;-90
2024/03/08 12:24:09;;;;;;;13.40;8.10;;;2.00;89.50;;;;;;4973973;28;20381;-90
2024/03/08 12:26:40;;;;;;;12.52;6.90;;;2.00;89.30;;;;;;4946320;29;20059;-88
2024/03/08 12:29:20;;;;;;;9.73;7.47;;;1.90;89.20;;;;;;4959255;29;20026;-87
2024/03/08 12:31:47;;;;;;;16.40;9.38;;;1.80;89.50;;;;;;4958576;28;20019;-86
2024/03/08 12:34:14;;;;;;;10.40;7.65;;;1.80;89.80;;;;;;4945917;28;20481;-86
2024/03/08 12:36:51;;;;;;;11.68;7.05;;;1.80;89.40;;;;;;4958228;28;20055;-87
2024/03/08 12:39:21;;;;;;;;;;;1.70;89.80;;;;;;4969918;28;20028;-86
2024/03/08 12:41:47;;;;;;;12.80;6.90;;;1.60;90.00;;;;;;4949266;29;19910;-89
2024/03/08 12:44:13;;;;;;;11.77;8.13;;;1.60;89.80;;;;;;4952720;29;20539;-88
2024/03/08 12:46:44;;;;;;;12.88;7.00;;;1.60;90.00;;;;;;4951180;28;20544;-87
2024/03/08 12:49:12;;;;;;;8.88;6.97;;;1.60;89.90;;;;;;4967581;28;20485;-89
2024/03/08 12:51:38;;;;;;;9.88;6.25;;;1.50;89.20;;;;;;4959342;28;20031;-87